createdAt,value
2017-10-15T00:01:43.512Z,15.38
2017-10-15T00:04:17.901Z,16.27
2017-10-15T00:06:53.190Z,16.62
2017-10-15T00:09:27.547Z,16.23
2017-10-15T00:12:02.052Z,16.00
2017-10-15T00:14:36.580Z,15.95
2017-10-15T00:17:11.084Z,16.20
2017-10-15T00:19:45.519Z,16.20
2017-10-15T00:22:19.872Z,17.62
2017-10-15T00:24:54.162Z,14.85
2017-10-15T00:27:28.605Z,15.98
2017-10-15T00:30:03.837Z,15.45
2017-10-15T00:32:38.280Z,16.70
2017-10-15T00:35:12.669Z,16.40
2017-10-15T00:37:47.788Z,16.35
2017-10-15T00:40:22.227Z,16.73
2017-10-15T00:42:57.458Z,15.98
2017-10-15T00:45:31.826Z,14.77
2017-10-15T00:48:06.168Z,17.85
2017-10-15T00:50:40.603Z,16.00
2017-10-15T00:53:14.952Z,17.15
2017-10-15T00:55:49.408Z,16.05
2017-10-15T00:58:23.811Z,16.83
2017-10-15T01:00:58.338Z,18.08
2017-10-15T01:03:32.850Z,18.95
2017-10-15T01:06:07.277Z,19.87
2017-10-15T01:08:41.825Z,16.52
2017-10-15T01:11:16.314Z,17.65
2017-10-15T01:13:51.436Z,18.25
2017-10-15T01:16:25.864Z,18.45
2017-10-15T01:19:00.799Z,17.92
2017-10-15T01:21:35.157Z,18.50
2017-10-15T01:24:09.655Z,19.23
2017-10-15T01:26:44.200Z,19.35
2017-10-15T01:29:18.665Z,18.70
2017-10-15T01:31:52.975Z,19.70
2017-10-15T01:34:28.228Z,18.33
2017-10-15T01:37:02.716Z,19.95
2017-10-15T01:39:37.156Z,20.35
2017-10-15T01:42:12.351Z,21.05
2017-10-15T01:44:46.760Z,20.80
2017-10-15T01:47:21.265Z,21.90
2017-10-15T01:49:55.607Z,20.27
2017-10-15T01:52:30.027Z,21.25
2017-10-15T01:55:04.391Z,23.00
2017-10-15T01:57:38.867Z,23.83
2017-10-15T02:00:13.306Z,22.52
2017-10-15T02:02:47.649Z,23.40
2017-10-15T02:05:22.116Z,23.60
2017-10-15T02:07:56.665Z,24.73
2017-10-15T02:10:31.096Z,23.52
2017-10-15T02:13:05.540Z,24.02
2017-10-15T02:15:40.003Z,25.48
2017-10-15T02:18:15.249Z,22.70
2017-10-15T02:20:49.616Z,26.23
2017-10-15T02:23:24.126Z,25.15
2017-10-15T02:25:59.439Z,25.40
2017-10-15T02:28:33.977Z,24.20
2017-10-15T02:31:08.324Z,26.10
2017-10-15T02:33:42.756Z,26.62
2017-10-15T02:36:17.139Z,26.20
2017-10-15T02:38:51.583Z,25.88
2017-10-15T02:41:25.970Z,27.30
2017-10-15T02:44:00.307Z,27.52
2017-10-15T02:46:34.673Z,24.87
2017-10-15T02:49:09.113Z,25.83
2017-10-15T02:51:43.572Z,26.62
2017-10-15T02:54:18.049Z,26.80
2017-10-15T02:56:52.598Z,27.15
2017-10-15T02:59:27.002Z,28.83
2017-10-15T03:02:01.379Z,25.40
2017-10-15T03:04:35.718Z,26.92
2017-10-15T03:07:10.142Z,28.17
2017-10-15T03:09:45.416Z,29.73
2017-10-15T03:12:19.880Z,30.20
2017-10-15T03:14:54.217Z,29.77
2017-10-15T03:17:28.600Z,30.85
2017-10-15T03:20:03.891Z,29.73
2017-10-15T03:22:38.244Z,30.10
2017-10-15T03:25:12.742Z,33.92
2017-10-15T03:27:47.964Z,32.65
2017-10-15T03:30:22.279Z,32.08
2017-10-15T03:32:56.691Z,31.75
2017-10-15T03:35:31.067Z,32.60
2017-10-15T03:38:05.555Z,33.17
2017-10-15T03:40:39.932Z,33.83
2017-10-15T03:43:14.372Z,31.87
2017-10-15T03:45:48.923Z,33.17
2017-10-15T03:48:23.249Z,32.92
2017-10-15T03:50:57.625Z,31.70
2017-10-15T03:53:32.040Z,31.80
2017-10-15T03:56:06.429Z,37.15
2017-10-15T03:58:40.896Z,34.28
2017-10-15T04:01:15.332Z,34.80
2017-10-15T04:03:50.676Z,34.75
2017-10-15T04:06:25.057Z,34.65
2017-10-15T04:09:00.321Z,33.22
2017-10-15T04:11:34.774Z,37.28
2017-10-15T04:14:09.154Z,37.13
2017-10-15T04:16:43.587Z,38.05
2017-10-15T04:19:18.021Z,39.22
2017-10-15T04:21:52.313Z,35.83
2017-10-15T04:24:26.754Z,36.75
2017-10-15T04:27:01.174Z,38.72
2017-10-15T04:29:35.580Z,36.22
2017-10-15T04:32:10.091Z,36.67
2017-10-15T04:34:44.420Z,38.45
2017-10-15T04:37:18.947Z,36.75
2017-10-15T04:39:54.181Z,36.45
2017-10-15T04:42:30.209Z,39.70
2017-10-15T04:45:04.660Z,38.15
2017-10-15T04:47:39.157Z,35.53
2017-10-15T04:50:13.480Z,40.50
2017-10-15T04:52:48.692Z,39.40
2017-10-15T04:55:23.260Z,35.45
2017-10-15T04:57:57.744Z,34.38
2017-10-15T05:00:32.117Z,34.00
2017-10-15T05:03:06.585Z,37.95
2017-10-15T05:05:41.047Z,36.45
2017-10-15T05:08:15.576Z,35.55
2017-10-15T05:10:50.648Z,36.55
2017-10-15T05:13:25.120Z,34.78
2017-10-15T05:15:59.644Z,38.55
2017-10-15T05:18:34.032Z,36.72
2017-10-15T05:21:08.424Z,38.17
2017-10-15T05:23:42.930Z,36.30
2017-10-15T05:26:17.260Z,35.33
2017-10-15T05:28:52.380Z,36.33
2017-10-15T05:31:26.824Z,35.30
2017-10-15T05:34:01.261Z,38.72
2017-10-15T05:36:35.607Z,33.63
2017-10-15T05:39:10.004Z,37.10
2017-10-15T05:41:44.532Z,37.95
2017-10-15T05:44:19.011Z,35.20
2017-10-15T05:46:53.612Z,37.30
2017-10-15T05:49:28.074Z,34.97
2017-10-15T05:52:02.544Z,38.40
2017-10-15T05:54:37.043Z,38.03
2017-10-15T05:57:11.404Z,38.53
2017-10-15T05:59:45.936Z,38.60
2017-10-15T06:02:20.332Z,39.72
2017-10-15T06:04:54.902Z,37.08
2017-10-15T06:07:29.288Z,40.03
2017-10-15T06:10:03.620Z,39.65
2017-10-15T06:12:38.101Z,38.28
2017-10-15T06:15:12.437Z,38.40
2017-10-15T06:17:46.725Z,38.15
2017-10-15T06:20:21.089Z,38.72
2017-10-15T06:22:55.553Z,41.08
2017-10-15T06:25:30.060Z,38.65
2017-10-15T06:28:04.491Z,38.72
2017-10-15T06:30:38.955Z,37.30
2017-10-15T06:33:13.428Z,35.80
2017-10-15T06:35:47.921Z,38.13
2017-10-15T06:38:22.342Z,35.88
2017-10-15T06:40:56.937Z,32.83
2017-10-15T06:43:31.378Z,32.70
2017-10-15T06:46:05.755Z,37.63
2017-10-15T06:48:40.284Z,33.33
2017-10-15T06:51:14.816Z,36.33
2017-10-15T06:53:49.220Z,37.08
2017-10-15T06:56:23.630Z,39.38
2017-10-15T06:58:58.021Z,33.45
2017-10-15T07:01:32.366Z,35.55
2017-10-15T07:04:06.858Z,35.83
2017-10-15T07:06:41.366Z,33.13
2017-10-15T07:09:15.881Z,35.88
2017-10-15T07:11:50.469Z,34.20
2017-10-15T07:14:24.903Z,30.70
2017-10-15T07:16:59.421Z,32.88
2017-10-15T07:19:33.926Z,34.30
2017-10-15T07:22:08.363Z,34.33
2017-10-15T07:24:42.835Z,34.92
2017-10-15T07:27:17.226Z,31.35
2017-10-15T07:29:52.432Z,32.88
2017-10-15T07:32:27.816Z,35.90
2017-10-15T07:35:02.155Z,33.85
2017-10-15T07:37:36.593Z,29.10
2017-10-15T07:40:12.189Z,29.87
2017-10-15T07:42:46.552Z,28.87
2017-10-15T07:45:21.016Z,26.52
2017-10-15T07:47:55.488Z,31.23
2017-10-15T07:50:30.699Z,26.30
2017-10-15T07:53:05.296Z,31.12
2017-10-15T07:55:39.961Z,28.25
2017-10-15T07:58:14.449Z,29.20
2017-10-15T08:00:48.989Z,31.67
2017-10-15T08:03:23.467Z,28.55
2017-10-15T08:05:57.799Z,31.00
2017-10-15T08:08:32.972Z,29.30
2017-10-15T08:11:08.397Z,31.25
2017-10-15T08:13:42.744Z,34.47
2017-10-15T08:16:17.164Z,33.13
2017-10-15T08:18:51.545Z,31.60
2017-10-15T08:21:25.991Z,32.30
2017-10-15T08:24:00.440Z,32.25
2017-10-15T08:26:34.848Z,30.90
2017-10-15T08:29:10.659Z,30.27
2017-10-15T08:31:45.892Z,31.27
2017-10-15T08:34:20.479Z,30.75
2017-10-15T08:36:54.829Z,34.28
2017-10-15T08:39:29.192Z,32.88
2017-10-15T08:42:03.632Z,30.67
2017-10-15T08:44:38.283Z,32.80
2017-10-15T08:47:12.644Z,29.40
2017-10-15T08:49:47.162Z,32.40
2017-10-15T08:52:21.667Z,31.25
2017-10-15T08:54:56.190Z,30.60
2017-10-15T08:57:30.631Z,32.60
2017-10-15T09:00:04.944Z,31.23
2017-10-15T09:02:39.401Z,33.30
2017-10-15T09:05:13.759Z,32.63
2017-10-15T09:07:48.222Z,30.05
2017-10-15T09:10:22.630Z,30.88
2017-10-15T09:12:57.091Z,30.37
2017-10-15T09:15:31.455Z,30.75
2017-10-15T09:18:06.074Z,29.17
2017-10-15T09:20:40.565Z,30.23
2017-10-15T09:23:15.840Z,29.10
2017-10-15T09:25:50.381Z,29.30
2017-10-15T09:28:24.809Z,28.80
2017-10-15T09:30:59.246Z,29.23
2017-10-15T09:33:33.713Z,29.98
2017-10-15T09:36:09.712Z,30.23
2017-10-15T09:38:44.097Z,30.10
2017-10-15T09:41:18.533Z,31.42
2017-10-15T09:43:53.660Z,32.38
2017-10-15T09:46:28.062Z,32.47
2017-10-15T09:49:02.580Z,31.67
2017-10-15T09:51:37.031Z,33.95
2017-10-15T09:54:12.228Z,32.22
2017-10-15T09:56:46.700Z,29.80
2017-10-15T09:59:22.047Z,31.90
2017-10-15T10:01:56.481Z,29.77
2017-10-15T10:04:30.900Z,31.95
2017-10-15T10:07:05.296Z,30.92
2017-10-15T10:09:39.664Z,28.83
2017-10-15T10:12:14.208Z,28.60
2017-10-15T10:14:48.529Z,29.60
2017-10-15T10:17:23.006Z,28.33
2017-10-15T10:19:57.527Z,27.30
2017-10-15T10:22:32.747Z,25.37
2017-10-15T10:25:07.239Z,28.90
2017-10-15T10:27:41.739Z,27.00
2017-10-15T10:30:16.197Z,26.40
2017-10-15T10:32:50.632Z,27.63
2017-10-15T10:35:25.768Z,27.30
2017-10-15T10:38:00.145Z,28.45
2017-10-15T10:40:34.614Z,29.50
2017-10-15T10:43:09.944Z,31.75
2017-10-15T10:45:44.421Z,30.40
2017-10-15T10:48:19.001Z,29.15
2017-10-15T10:50:53.398Z,32.70
2017-10-15T10:53:27.957Z,30.10
2017-10-15T10:56:03.478Z,31.60
2017-10-15T10:58:37.857Z,30.77
2017-10-15T11:01:12.408Z,32.67
2017-10-15T11:03:46.969Z,30.12
2017-10-15T11:06:21.613Z,31.20
2017-10-15T11:08:56.047Z,29.33
2017-10-15T11:11:30.576Z,30.05
2017-10-15T11:14:05.180Z,32.53
2017-10-15T11:16:40.438Z,31.30
2017-10-15T11:19:15.696Z,29.95
2017-10-15T11:21:50.188Z,32.13
2017-10-15T11:24:24.626Z,30.20
2017-10-15T11:26:59.266Z,28.83
2017-10-15T11:29:33.840Z,28.60
2017-10-15T11:32:08.380Z,27.08
2017-10-15T11:34:42.861Z,25.95
2017-10-15T11:37:17.369Z,30.70
2017-10-15T11:39:52.054Z,30.55
2017-10-15T11:42:26.590Z,32.33
2017-10-15T11:45:01.842Z,29.73
2017-10-15T11:47:36.312Z,27.05
2017-10-15T11:50:10.793Z,29.00
2017-10-15T11:52:45.147Z,27.50
2017-10-15T11:55:19.759Z,28.83
2017-10-15T11:57:54.146Z,26.73
2017-10-15T12:00:28.669Z,26.80
2017-10-15T12:03:03.206Z,28.55
2017-10-15T12:05:37.748Z,26.50
2017-10-15T12:08:12.244Z,25.70
2017-10-15T12:10:46.782Z,25.93
2017-10-15T12:13:21.238Z,25.60
2017-10-15T12:15:56.488Z,24.80
2017-10-15T12:18:31.018Z,23.67
2017-10-15T12:21:05.349Z,23.73
2017-10-15T12:23:40.669Z,25.48
2017-10-15T12:26:16.061Z,23.83
2017-10-15T12:28:50.424Z,26.97
2017-10-15T12:31:24.925Z,24.57
2017-10-15T12:34:00.182Z,25.03
2017-10-15T12:36:35.342Z,24.53
2017-10-15T12:39:09.667Z,24.50
2017-10-15T12:41:44.172Z,24.58
2017-10-15T12:44:18.736Z,22.77
2017-10-15T12:46:53.187Z,21.53
2017-10-15T12:49:27.692Z,24.60
2017-10-15T12:52:02.192Z,24.43
2017-10-15T12:54:36.659Z,24.57
2017-10-15T12:57:11.172Z,22.43
2017-10-15T12:59:45.803Z,23.43
2017-10-15T13:02:20.198Z,24.33
2017-10-15T13:04:54.639Z,23.43
2017-10-15T13:07:31.010Z,24.10
2017-10-15T13:10:05.412Z,22.80
2017-10-15T13:12:39.898Z,21.87
2017-10-15T13:15:14.355Z,21.13
2017-10-15T13:17:48.814Z,22.90
2017-10-15T13:20:24.052Z,23.20
2017-10-15T13:22:58.508Z,22.50
2017-10-15T13:25:33.069Z,22.00
2017-10-15T13:28:07.625Z,20.90
2017-10-15T13:30:42.075Z,21.63
2017-10-15T13:33:16.472Z,22.70
2017-10-15T13:35:51.106Z,23.00
2017-10-15T13:38:25.737Z,22.43
2017-10-15T13:41:00.180Z,22.57
2017-10-15T13:43:34.758Z,22.33
2017-10-15T13:46:09.177Z,23.43
2017-10-15T13:48:43.693Z,22.00
2017-10-15T13:51:18.933Z,22.40
2017-10-15T13:53:53.297Z,20.07
2017-10-15T13:56:27.809Z,20.90
2017-10-15T13:59:02.237Z,19.20
2017-10-15T14:01:36.638Z,19.73
2017-10-15T14:04:17.785Z,17.70
2017-10-15T14:06:52.260Z,17.10
2017-10-15T14:09:26.806Z,15.40
2017-10-15T14:12:01.244Z,14.00
2017-10-15T14:14:35.696Z,13.60
2017-10-15T14:17:10.028Z,12.13
2017-10-15T14:19:44.397Z,12.20
2017-10-15T14:22:18.862Z,13.20
2017-10-15T14:24:54.211Z,13.17
2017-10-15T14:27:28.700Z,13.17
2017-10-15T14:30:03.207Z,13.90
2017-10-15T14:32:37.746Z,12.27
2017-10-15T14:35:12.231Z,13.90
2017-10-15T14:37:46.783Z,12.20
2017-10-15T14:40:21.273Z,11.50
2017-10-15T14:42:55.623Z,10.80
2017-10-15T14:45:30.201Z,11.57
2017-10-15T14:48:04.665Z,11.83
2017-10-15T14:50:39.036Z,11.93
2017-10-15T14:53:13.536Z,10.90
2017-10-15T14:55:57.556Z,10.50
2017-10-15T14:58:31.897Z,11.50
2017-10-15T15:01:07.123Z,10.93
2017-10-15T15:03:41.639Z,9.97
2017-10-15T15:06:16.166Z,10.33
2017-10-15T15:08:54.273Z,34.60
2017-10-15T15:11:28.776Z,11.00
2017-10-15T15:14:03.322Z,10.40
2017-10-15T15:16:37.843Z,12.43
2017-10-15T15:19:12.224Z,10.33
2017-10-15T15:21:46.667Z,10.87
2017-10-15T15:24:21.131Z,9.90
2017-10-15T15:26:56.328Z,10.43
2017-10-15T15:29:30.676Z,10.80
2017-10-15T15:32:05.001Z,9.97
2017-10-15T15:34:39.306Z,9.43
2017-10-15T15:37:13.688Z,10.47
2017-10-15T15:39:48.871Z,9.27
2017-10-15T15:42:23.278Z,9.90
2017-10-15T15:44:57.748Z,11.53
2017-10-15T15:47:32.129Z,10.00
2017-10-15T15:50:06.606Z,11.20
2017-10-15T15:52:41.934Z,10.47
2017-10-15T15:55:16.681Z,10.70
2017-10-15T15:57:52.022Z,10.70
2017-10-15T16:00:26.479Z,9.73
2017-10-15T16:03:01.926Z,13.73
2017-10-15T16:05:36.524Z,18.00
2017-10-15T16:08:10.999Z,11.40
2017-10-15T16:10:45.441Z,11.30
2017-10-15T16:13:19.972Z,11.93
2017-10-15T16:15:54.328Z,11.60
2017-10-15T16:18:28.755Z,11.33
2017-10-15T16:21:03.189Z,11.43
2017-10-15T16:23:37.703Z,11.30
2017-10-15T16:26:12.047Z,12.53
2017-10-15T16:28:46.458Z,11.33
2017-10-15T16:31:20.962Z,11.17
2017-10-15T16:33:55.389Z,12.17
2017-10-15T16:36:29.700Z,11.87
2017-10-15T16:39:04.262Z,11.33
2017-10-15T16:41:38.773Z,10.40
2017-10-15T16:44:13.342Z,12.73
2017-10-15T16:46:47.726Z,13.07
2017-10-15T16:49:22.817Z,12.25
2017-10-15T16:51:57.537Z,11.85
2017-10-15T16:54:32.092Z,11.85
2017-10-15T16:57:06.609Z,12.13
2017-10-15T16:59:41.141Z,13.15
2017-10-15T17:02:15.663Z,11.90
2017-10-15T17:04:50.167Z,11.77
2017-10-15T17:07:24.702Z,11.03
2017-10-15T17:09:59.955Z,11.27
2017-10-15T17:12:34.292Z,11.40
2017-10-15T17:15:08.720Z,11.43
2017-10-15T17:17:43.258Z,13.73
2017-10-15T17:20:17.941Z,12.13
2017-10-15T17:22:52.555Z,11.80
2017-10-15T17:25:27.083Z,12.45
2017-10-15T17:28:01.602Z,11.88
2017-10-15T17:30:36.431Z,11.75
2017-10-15T17:33:11.521Z,11.90
2017-10-15T17:35:46.956Z,11.82
2017-10-15T17:38:21.795Z,11.20
2017-10-15T17:40:56.682Z,9.98
2017-10-15T17:43:31.379Z,9.90
2017-10-15T17:46:06.262Z,10.88
2017-10-15T17:48:41.792Z,9.50
2017-10-15T17:51:16.568Z,8.60
2017-10-15T17:53:51.325Z,9.07
2017-10-15T17:56:26.234Z,9.60
2017-10-15T17:59:01.288Z,7.90
2017-10-15T18:01:36.189Z,7.97
2017-10-15T18:04:10.907Z,7.15
2017-10-15T18:06:46.502Z,7.28
2017-10-15T18:09:21.216Z,6.47
2017-10-15T18:11:56.220Z,7.70
2017-10-15T18:14:30.894Z,7.20
2017-10-15T18:17:06.635Z,7.50
2017-10-15T18:19:41.393Z,5.60
2017-10-15T18:22:17.031Z,5.80
2017-10-15T18:24:51.819Z,5.55
2017-10-15T18:27:26.708Z,5.65
2017-10-15T18:30:01.581Z,5.70
2017-10-15T18:32:36.508Z,5.32
2017-10-15T18:35:11.457Z,5.82
2017-10-15T18:37:47.239Z,5.68
2017-10-15T18:40:22.215Z,5.43
2017-10-15T18:42:57.057Z,6.50
2017-10-15T18:45:32.086Z,6.03
2017-10-15T18:48:07.011Z,6.80
2017-10-15T18:50:41.880Z,5.93
2017-10-15T18:53:17.092Z,6.35
2017-10-15T18:55:52.798Z,6.37
2017-10-15T18:58:28.478Z,6.80
2017-10-15T19:01:03.214Z,6.30
2017-10-15T19:03:38.311Z,5.40
2017-10-15T19:06:13.331Z,5.87
2017-10-15T19:08:48.284Z,6.47
2017-10-15T19:11:23.255Z,5.28
2017-10-15T19:13:58.075Z,5.50
2017-10-15T19:16:33.198Z,5.50
2017-10-15T19:19:09.097Z,6.15
2017-10-15T19:21:44.591Z,5.75
2017-10-15T19:24:19.442Z,5.82
2017-10-15T19:26:54.357Z,5.72
2017-10-15T19:29:29.192Z,5.95
2017-10-15T19:32:03.977Z,6.70
2017-10-15T19:34:38.859Z,6.18
2017-10-15T19:37:13.750Z,6.25
2017-10-15T19:39:49.556Z,6.22
2017-10-15T19:42:24.580Z,7.28
2017-10-15T19:44:59.410Z,6.95
2017-10-15T19:47:34.498Z,5.95
2017-10-15T19:50:10.446Z,6.20
2017-10-15T19:52:45.346Z,6.95
2017-10-15T19:55:20.274Z,6.50
2017-10-15T19:57:55.092Z,7.72
2017-10-15T20:00:30.114Z,6.50
2017-10-15T20:03:04.879Z,7.20
2017-10-15T20:05:40.552Z,7.25
2017-10-15T20:08:15.598Z,6.22
2017-10-15T20:10:50.624Z,6.35
2017-10-15T20:13:25.589Z,6.62
2017-10-15T20:16:00.498Z,6.90
2017-10-15T20:18:35.213Z,6.87
2017-10-15T20:21:10.033Z,6.85
2017-10-15T20:23:44.952Z,6.40
2017-10-15T20:26:19.814Z,7.18
2017-10-15T20:28:54.474Z,6.95
2017-10-15T20:31:29.106Z,6.50
2017-10-15T20:34:03.554Z,6.65
2017-10-15T20:36:38.006Z,7.05
2017-10-15T20:39:12.488Z,6.25
2017-10-15T20:41:47.441Z,6.93
2017-10-15T20:44:23.557Z,6.43
2017-10-15T20:46:58.666Z,6.85
2017-10-15T20:49:33.883Z,6.75
2017-10-15T20:52:08.356Z,7.65
2017-10-15T20:54:42.741Z,7.62
2017-10-15T20:57:17.156Z,7.12
2017-10-15T20:59:51.540Z,7.35
2017-10-15T21:02:25.899Z,7.87
2017-10-15T21:05:01.327Z,7.37
2017-10-15T21:07:37.031Z,7.97
2017-10-15T21:10:11.495Z,7.40
2017-10-15T21:12:46.629Z,7.95
2017-10-15T21:15:21.191Z,8.35
2017-10-15T21:17:55.737Z,6.80
2017-10-15T21:20:30.060Z,7.68
2017-10-15T21:23:04.551Z,7.57
2017-10-15T21:25:39.633Z,8.13
2017-10-15T21:28:13.967Z,8.13
2017-10-15T21:30:48.404Z,8.00
2017-10-15T21:33:22.959Z,7.85
2017-10-15T21:35:57.337Z,8.18
2017-10-15T21:38:31.908Z,8.05
2017-10-15T21:41:06.259Z,7.90
2017-10-15T21:43:40.802Z,6.72
2017-10-15T21:46:15.309Z,7.32
2017-10-15T21:48:49.651Z,8.68
2017-10-15T21:51:24.163Z,8.77
2017-10-15T21:53:58.464Z,7.90
2017-10-15T21:56:32.819Z,7.65
2017-10-15T21:59:07.343Z,7.45
2017-10-15T22:01:41.683Z,8.43
2017-10-15T22:04:16.862Z,8.50
2017-10-15T22:06:51.335Z,7.75
2017-10-15T22:09:26.544Z,8.48
2017-10-15T22:12:00.856Z,7.25
2017-10-15T22:14:35.186Z,8.93
2017-10-15T22:17:09.496Z,9.35
2017-10-15T22:19:44.595Z,7.97
2017-10-15T22:22:24.952Z,8.63
2017-10-15T22:25:00.192Z,8.90
2017-10-15T22:27:34.723Z,9.35
2017-10-15T22:30:09.070Z,8.57
2017-10-15T22:32:43.448Z,8.90
2017-10-15T22:35:17.938Z,7.93
2017-10-15T22:37:54.330Z,9.95
2017-10-15T22:40:28.842Z,9.02
2017-10-15T22:43:03.268Z,8.80
2017-10-15T22:45:37.720Z,8.10
2017-10-15T22:48:12.829Z,8.63
2017-10-15T22:50:47.299Z,8.88
2017-10-15T22:53:21.703Z,9.25
2017-10-15T22:55:56.164Z,9.25
2017-10-15T22:58:30.560Z,9.68
2017-10-15T23:01:05.642Z,9.75
2017-10-15T23:03:39.987Z,8.75
2017-10-15T23:06:14.306Z,9.45
2017-10-15T23:08:48.644Z,9.65
2017-10-15T23:11:22.936Z,8.88
2017-10-15T23:13:57.362Z,9.75
2017-10-15T23:16:31.724Z,8.40
2017-10-15T23:19:06.068Z,9.75
2017-10-15T23:21:40.353Z,9.10
2017-10-15T23:24:14.741Z,8.63
2017-10-15T23:26:49.948Z,9.48
2017-10-15T23:29:24.289Z,9.75
2017-10-15T23:31:58.571Z,9.07
2017-10-15T23:34:32.884Z,9.70
2017-10-15T23:37:07.311Z,10.35
2017-10-15T23:39:41.739Z,10.10
2017-10-15T23:42:17.139Z,9.93
2017-10-15T23:44:51.622Z,10.13
2017-10-15T23:47:26.121Z,9.57
2017-10-15T23:50:00.472Z,9.70
2017-10-15T23:52:34.927Z,9.75
2017-10-15T23:55:10.099Z,12.10
2017-10-15T23:57:44.520Z,9.85
